createdAt,value
2022-08-07T00:00:03.541Z,55.42
2022-08-07T00:01:43.240Z,55.22
2022-08-07T00:02:41.129Z,55.22
2022-08-07T00:03:10.121Z,55.32
2022-08-07T00:04:03.394Z,55.32
2022-08-07T00:05:04.269Z,55.22
2022-08-07T00:06:02.610Z,55.22
2022-08-07T00:07:05.175Z,55.62
2022-08-07T00:08:10.919Z,55.52
2022-08-07T00:09:16.428Z,55.55
2022-08-07T00:10:26.598Z,55.85
2022-08-07T00:11:06.355Z,55.75
2022-08-07T00:12:02.595Z,55.75
2022-08-07T00:13:17.421Z,55.75
2022-08-07T00:14:09.900Z,56.15
2022-08-07T00:15:02.803Z,56.05
2022-08-07T00:16:03.617Z,55.95
2022-08-07T00:17:03.639Z,56.28
2022-08-07T00:18:03.547Z,56.18
2022-08-07T00:19:03.595Z,56.59
2022-08-07T00:20:09.046Z,56.79
2022-08-07T00:21:55.475Z,57.70
2022-08-07T00:22:04.366Z,58.11
2022-08-07T00:23:02.751Z,57.80
2022-08-07T00:24:10.206Z,58.31
2022-08-07T00:25:11.138Z,57.83
2022-08-07T00:26:13.047Z,57.83
2022-08-07T00:27:07.450Z,57.83
2022-08-07T00:28:04.198Z,57.93
2022-08-07T00:29:08.606Z,58.44
2022-08-07T00:30:04.135Z,58.64
2022-08-07T00:31:12.819Z,58.54
2022-08-07T00:32:03.840Z,58.34
2022-08-07T00:33:02.828Z,58.03
2022-08-07T00:34:02.215Z,58.23
2022-08-07T00:35:02.192Z,57.93
2022-08-07T00:36:02.239Z,57.73
2022-08-07T00:37:11.746Z,57.83
2022-08-07T00:38:02.998Z,57.53
2022-08-07T00:39:03.507Z,57.32
2022-08-07T00:40:03.287Z,57.12
2022-08-07T00:41:02.102Z,57.09
2022-08-07T00:42:08.919Z,57.20
2022-08-07T00:43:02.416Z,57.50
2022-08-07T00:44:02.976Z,57.40
2022-08-07T00:45:02.185Z,57.29
2022-08-07T00:46:03.553Z,57.40
2022-08-07T00:48:05.156Z,57.29
2022-08-07T00:48:11.121Z,57.20
2022-08-07T00:49:03.686Z,57.20
2022-08-07T00:50:19.249Z,57.29
2022-08-07T00:51:03.998Z,57.40
2022-08-07T00:52:02.324Z,57.40
2022-08-07T00:53:02.243Z,57.50
2022-08-07T00:54:08.447Z,57.40
2022-08-07T00:55:04.687Z,57.60
2022-08-07T00:56:04.459Z,57.50
2022-08-07T00:57:03.510Z,57.50
2022-08-07T00:58:02.667Z,57.60
2022-08-07T00:59:02.064Z,57.70
2022-08-07T01:00:08.521Z,57.60
2022-08-07T01:01:03.107Z,57.70
2022-08-07T01:02:01.913Z,58.03
2022-08-07T01:03:02.910Z,58.94
2022-08-07T01:04:08.514Z,58.94
2022-08-07T01:05:19.337Z,59.05
2022-08-07T01:06:04.425Z,59.14
2022-08-07T01:07:01.996Z,59.34
2022-08-07T01:08:02.888Z,59.38
2022-08-07T01:09:02.783Z,59.68
2022-08-07T01:10:11.243Z,59.58
2022-08-07T01:12:04.769Z,59.58
2022-08-07T01:12:10.212Z,59.68
2022-08-07T01:13:03.539Z,59.68
2022-08-07T01:14:03.039Z,60.01
2022-08-07T01:15:35.896Z,60.31
2022-08-07T01:16:34.184Z,60.21
2022-08-07T01:17:32.874Z,60.21
2022-08-07T01:18:32.512Z,60.52
2022-08-07T01:19:32.462Z,60.52
2022-08-07T01:20:42.985Z,60.42
2022-08-07T01:21:33.297Z,60.65
2022-08-07T01:22:31.919Z,60.75
2022-08-07T01:23:40.089Z,60.95
2022-08-07T01:24:32.694Z,60.95
2022-08-07T01:25:53.515Z,61.25
2022-08-07T01:26:34.249Z,61.39
2022-08-07T01:27:32.322Z,61.59
2022-08-07T01:28:32.330Z,61.69
2022-08-07T01:29:33.830Z,61.90
2022-08-07T01:30:31.588Z,61.90
2022-08-07T01:31:42.589Z,62.40
2022-08-07T01:32:33.100Z,62.71
2022-08-07T01:33:55.076Z,62.81
2022-08-07T01:34:33.707Z,62.71
2022-08-07T01:35:52.945Z,63.01
2022-08-07T01:36:40.697Z,62.91
2022-08-07T01:37:33.810Z,62.81
2022-08-07T01:38:31.894Z,62.91
2022-08-07T01:39:40.803Z,62.81
2022-08-07T01:40:33.238Z,63.21
2022-08-07T01:41:32.607Z,63.11
2022-08-07T01:42:57.396Z,63.11
2022-08-07T01:43:34.513Z,63.01
2022-08-07T01:44:32.872Z,63.21
2022-08-07T01:45:37.233Z,63.11
2022-08-07T01:46:33.772Z,63.11
2022-08-07T01:48:19.277Z,63.42
2022-08-07T01:48:41.116Z,63.65
2022-08-07T01:49:31.885Z,63.65
2022-08-07T01:50:32.449Z,63.65
2022-08-07T01:52:02.471Z,63.55
2022-08-07T01:52:34.510Z,63.75
2022-08-07T01:54:09.086Z,63.75
2022-08-07T01:54:39.369Z,63.65
2022-08-07T01:55:33.615Z,63.75
2022-08-07T01:56:36.351Z,63.85
2022-08-07T01:58:00.997Z,64.06
2022-08-07T01:58:34.175Z,64.06
2022-08-07T01:59:37.707Z,63.95
2022-08-07T02:00:32.660Z,64.06
2022-08-07T02:02:00.013Z,64.15
2022-08-07T02:03:11.918Z,64.87
2022-08-07T02:03:42.904Z,64.56
2022-08-07T02:04:39.919Z,64.76
2022-08-07T02:05:48.169Z,64.97
2022-08-07T02:06:32.626Z,65.00
2022-08-07T02:07:44.960Z,65.61
2022-08-07T02:08:32.780Z,65.51
2022-08-07T02:09:52.806Z,66.02
2022-08-07T02:10:42.169Z,66.12
2022-08-07T02:12:04.708Z,66.42
2022-08-07T02:12:33.970Z,66.52
2022-08-07T02:13:57.917Z,66.32
2022-08-07T02:14:36.404Z,66.52
2022-08-07T02:15:34.130Z,66.93
2022-08-07T02:16:38.362Z,67.33
2022-08-07T02:17:34.120Z,67.64
2022-08-07T02:18:30.971Z,67.94
2022-08-07T02:20:06.737Z,67.84
2022-08-07T02:20:31.952Z,67.94
2022-08-07T02:21:56.090Z,67.84
2022-08-07T02:22:33.420Z,67.74
2022-08-07T02:23:35.779Z,68.05
2022-08-07T02:24:31.925Z,68.18
2022-08-07T02:26:11.438Z,68.18
2022-08-07T02:26:34.495Z,68.08
2022-08-07T02:27:41.163Z,68.38
2022-08-07T02:28:32.146Z,68.28
2022-08-07T02:29:31.263Z,68.38
2022-08-07T02:30:32.167Z,68.49
2022-08-07T02:31:30.794Z,68.59
2022-08-07T02:32:39.541Z,68.79
2022-08-07T02:33:42.027Z,68.49
2022-08-07T02:34:32.476Z,68.49
2022-08-07T02:36:30.865Z,68.38
2022-08-07T02:36:32.906Z,68.38
2022-08-07T02:37:34.276Z,68.28
2022-08-07T02:38:38.500Z,68.38
2022-08-07T02:39:42.586Z,68.32
2022-08-07T02:40:35.318Z,68.41
2022-08-07T02:41:33.478Z,68.72
2022-08-07T02:42:32.377Z,69.13
2022-08-07T02:43:39.462Z,69.02
2022-08-07T02:44:48.361Z,68.72
2022-08-07T02:46:00.918Z,68.52
2022-08-07T02:46:32.594Z,68.62
2022-08-07T02:47:45.194Z,68.41
2022-08-07T02:48:38.498Z,69.02
2022-08-07T02:49:58.312Z,69.02
2022-08-07T02:50:32.606Z,68.62
2022-08-07T02:51:42.536Z,68.32
2022-08-07T02:52:32.930Z,68.41
2022-08-07T02:53:30.473Z,68.41
2022-08-07T02:54:30.735Z,68.92
2022-08-07T02:56:03.472Z,68.72
2022-08-07T02:56:33.161Z,68.82
2022-08-07T02:57:34.094Z,69.02
2022-08-07T02:58:33.257Z,69.13
2022-08-07T02:59:30.382Z,69.02
2022-08-07T03:00:39.118Z,69.13
2022-08-07T03:01:36.304Z,68.52
2022-08-07T03:02:32.887Z,68.72
2022-08-07T03:03:50.192Z,69.02
2022-08-07T03:04:32.285Z,69.02
2022-08-07T03:05:35.718Z,69.64
2022-08-07T03:06:39.247Z,69.84
2022-08-07T03:08:05.239Z,69.33
2022-08-07T03:08:31.381Z,68.92
2022-08-07T03:09:42.448Z,68.32
2022-08-07T03:10:32.098Z,68.01
2022-08-07T03:11:32.638Z,68.11
2022-08-07T03:12:36.613Z,68.82
2022-08-07T03:13:30.610Z,68.82
2022-08-07T03:14:31.695Z,68.82
2022-08-07T03:15:55.774Z,68.32
2022-08-07T03:16:31.252Z,68.21
2022-08-07T03:17:52.785Z,68.41
2022-08-07T03:18:34.785Z,68.11
2022-08-07T03:19:36.784Z,67.80
2022-08-07T03:20:31.985Z,67.60
2022-08-07T03:21:33.153Z,67.50
2022-08-07T03:22:36.629Z,67.71
2022-08-07T03:23:33.619Z,68.04
2022-08-07T03:24:32.283Z,68.24
2022-08-07T03:25:40.483Z,68.32
2022-08-07T03:26:31.685Z,68.14
2022-08-07T03:27:59.574Z,68.35
2022-08-07T03:28:39.527Z,68.55
2022-08-07T03:29:36.629Z,68.55
2022-08-07T03:30:30.221Z,68.44
2022-08-07T03:31:43.489Z,68.96
2022-08-07T03:32:32.769Z,69.26
2022-08-07T03:33:40.049Z,69.46
2022-08-07T03:34:30.953Z,69.26
2022-08-07T03:35:43.610Z,69.46
2022-08-07T03:36:31.579Z,69.57
2022-08-07T03:37:32.712Z,69.06
2022-08-07T03:38:38.713Z,68.24
2022-08-07T03:40:00.045Z,68.44
2022-08-07T03:40:36.154Z,68.75
2022-08-07T03:41:42.165Z,68.35
2022-08-07T03:42:37.663Z,68.24
2022-08-07T03:43:32.439Z,67.83
2022-08-07T03:44:36.141Z,67.63
2022-08-07T03:45:31.510Z,67.83
2022-08-07T03:46:29.855Z,67.74
2022-08-07T03:47:47.773Z,67.53
2022-08-07T03:48:31.281Z,67.53
2022-08-07T03:49:36.392Z,67.63
2022-08-07T03:50:30.031Z,67.53
2022-08-07T03:51:30.738Z,67.80
2022-08-07T03:52:30.820Z,68.32
2022-08-07T03:54:01.952Z,68.21
2022-08-07T03:54:54.568Z,68.11
2022-08-07T03:55:57.467Z,68.21
2022-08-07T03:56:33.472Z,68.41
2022-08-07T03:58:34.343Z,68.11
2022-08-07T03:59:04.868Z,67.60
2022-08-07T03:59:31.559Z,67.63
2022-08-07T04:00:37.285Z,67.83
2022-08-07T04:01:32.258Z,68.14
2022-08-07T04:02:29.646Z,68.24
2022-08-07T04:03:29.831Z,68.32
2022-08-07T04:04:32.656Z,68.32
2022-08-07T04:05:40.272Z,68.32
2022-08-07T04:06:41.525Z,68.32
2022-08-07T04:07:36.277Z,68.32
2022-08-07T04:08:32.139Z,68.52
2022-08-07T04:09:45.160Z,68.21
2022-08-07T04:10:32.136Z,68.24
2022-08-07T04:12:24.944Z,68.35
2022-08-07T04:12:36.825Z,68.24
2022-08-07T04:14:10.900Z,68.24
2022-08-07T04:14:37.643Z,68.11
2022-08-07T04:15:31.361Z,68.11
2022-08-07T04:16:31.337Z,68.62
2022-08-07T04:18:19.664Z,68.82
2022-08-07T04:18:56.633Z,68.52
2022-08-07T04:19:50.969Z,67.91
2022-08-07T04:20:31.620Z,68.21
2022-08-07T04:21:35.730Z,68.32
2022-08-07T04:22:35.779Z,68.11
2022-08-07T04:23:43.410Z,68.21
2022-08-07T04:24:34.292Z,68.08
2022-08-07T04:25:35.893Z,67.77
2022-08-07T04:26:31.091Z,67.77
2022-08-07T04:27:36.249Z,67.77
2022-08-07T04:28:37.960Z,67.57
2022-08-07T04:29:30.475Z,66.46
2022-08-07T04:30:35.848Z,66.15
2022-08-07T04:31:38.863Z,66.15
2022-08-07T04:32:34.568Z,66.15
2022-08-07T04:33:35.540Z,66.05
2022-08-07T04:34:33.237Z,65.74
2022-08-07T04:35:35.261Z,65.54
2022-08-07T04:36:30.755Z,65.54
2022-08-07T04:37:29.208Z,65.41
2022-08-07T04:38:30.851Z,65.00
2022-08-07T04:39:35.590Z,65.51
2022-08-07T04:40:30.008Z,65.41
2022-08-07T04:41:29.099Z,64.56
2022-08-07T04:42:30.685Z,64.67
2022-08-07T04:44:11.301Z,64.97
2022-08-07T04:44:36.289Z,64.56
2022-08-07T04:45:57.234Z,64.46
2022-08-07T04:46:34.669Z,64.15
2022-08-07T04:48:01.600Z,64.36
2022-08-07T04:48:31.774Z,64.56
2022-08-07T04:49:29.276Z,64.76
2022-08-07T04:50:36.992Z,64.76
2022-08-07T04:51:28.974Z,64.67
2022-08-07T04:52:29.918Z,64.67
2022-08-07T04:54:01.866Z,64.64
2022-08-07T04:54:30.425Z,64.53
2022-08-07T04:58:13.248Z,64.33
2022-08-07T04:58:15.845Z,64.53
2022-08-07T04:58:27.513Z,64.33
2022-08-07T04:58:49.587Z,64.03
2022-08-07T05:00:14.506Z,63.72
2022-08-07T05:00:30.811Z,63.62
2022-08-07T05:01:29.925Z,63.52
2022-08-07T05:02:35.071Z,63.42
2022-08-07T05:04:01.102Z,62.98
2022-08-07T05:04:30.860Z,62.88
2022-08-07T05:05:52.764Z,62.48
2022-08-07T05:06:29.750Z,62.37
2022-08-07T05:07:48.248Z,61.87
2022-08-07T05:08:59.915Z,61.97
2022-08-07T05:09:45.430Z,61.63
2022-08-07T05:10:36.530Z,61.63
2022-08-07T05:11:57.923Z,61.63
2022-08-07T05:12:30.518Z,61.63
2022-08-07T05:14:53.516Z,61.74
2022-08-07T05:14:54.299Z,61.63
2022-08-07T05:15:29.959Z,61.94
2022-08-07T05:16:29.592Z,61.94
2022-08-07T05:17:50.793Z,61.94
2022-08-07T05:18:29.797Z,62.45
2022-08-07T05:19:44.726Z,62.75
2022-08-07T05:20:34.144Z,62.92
2022-08-07T05:22:00.805Z,63.02
2022-08-07T05:22:30.820Z,62.92
2022-08-07T05:23:30.061Z,63.02
2022-08-07T05:24:30.401Z,62.92
2022-08-07T05:25:54.424Z,62.72
2022-08-07T05:26:30.262Z,61.80
2022-08-07T05:28:02.910Z,61.60
2022-08-07T05:28:29.558Z,61.60
2022-08-07T05:29:38.831Z,61.40
2022-08-07T05:30:33.031Z,60.89
2022-08-07T05:31:37.693Z,60.57
2022-08-07T05:32:28.481Z,60.26
2022-08-07T05:33:28.450Z,60.26
2022-08-07T05:34:28.401Z,60.26
2022-08-07T05:35:33.572Z,59.75
2022-08-07T05:36:39.165Z,59.85
2022-08-07T05:37:40.897Z,59.75
2022-08-07T05:39:00.908Z,59.75
2022-08-07T05:40:13.674Z,59.75
2022-08-07T05:40:29.326Z,59.75
2022-08-07T05:42:01.689Z,59.14
2022-08-07T05:42:36.845Z,59.14
2022-08-07T05:43:50.071Z,59.25
2022-08-07T05:44:30.483Z,58.94
2022-08-07T05:45:47.633Z,58.94
2022-08-07T05:46:29.768Z,58.84
2022-08-07T05:47:38.483Z,58.61
2022-08-07T05:48:29.173Z,58.71
2022-08-07T05:49:40.552Z,58.92
2022-08-07T05:50:29.785Z,58.81
2022-08-07T05:51:31.561Z,58.41
2022-08-07T05:52:29.918Z,58.51
2022-08-07T05:54:09.541Z,58.11
2022-08-07T05:54:31.026Z,57.90
2022-08-07T05:56:03.366Z,57.27
2022-08-07T05:56:30.137Z,57.27
2022-08-07T05:57:30.128Z,57.47
2022-08-07T05:58:37.064Z,57.57
2022-08-07T05:59:28.311Z,57.67
2022-08-07T06:00:29.590Z,57.57
2022-08-07T06:01:35.831Z,57.47
2022-08-07T06:02:30.677Z,57.07
2022-08-07T06:03:34.256Z,57.14
2022-08-07T06:04:36.371Z,57.14
2022-08-07T06:05:28.420Z,56.33
2022-08-07T06:06:30.026Z,56.33
2022-08-07T06:08:13.438Z,56.43
2022-08-07T06:08:30.631Z,56.02
2022-08-07T06:10:04.457Z,56.02
2022-08-07T06:10:36.212Z,55.93
2022-08-07T06:11:27.969Z,55.80
2022-08-07T06:12:33.154Z,55.80
2022-08-07T06:14:10.328Z,56.00
2022-08-07T06:14:30.429Z,55.90
2022-08-07T06:15:39.479Z,56.20
2022-08-07T06:16:35.676Z,55.80
2022-08-07T06:17:32.166Z,55.69
2022-08-07T06:18:29.321Z,55.19
2022-08-07T06:19:58.338Z,55.09
2022-08-07T06:20:49.350Z,54.76
2022-08-07T06:22:16.361Z,55.07
2022-08-07T06:22:39.099Z,54.96
2022-08-07T06:24:32.562Z,54.86
2022-08-07T06:24:46.080Z,54.76
2022-08-07T06:25:28.863Z,54.66
2022-08-07T06:26:29.550Z,54.56
2022-08-07T06:27:54.467Z,54.25
2022-08-07T06:28:29.649Z,54.25
2022-08-07T06:29:27.978Z,54.05
2022-08-07T06:30:36.133Z,53.72
2022-08-07T06:31:46.774Z,53.52
2022-08-07T06:32:29.296Z,53.63
2022-08-07T06:33:35.157Z,53.32
2022-08-07T06:34:29.800Z,53.42
2022-08-07T06:35:38.970Z,53.09
2022-08-07T06:36:35.596Z,52.89
2022-08-07T06:37:44.123Z,52.79
2022-08-07T06:38:36.489Z,52.69
2022-08-07T06:40:13.135Z,52.39
2022-08-07T06:40:34.041Z,52.29
2022-08-07T06:41:47.639Z,52.49
2022-08-07T06:42:34.933Z,52.59
2022-08-07T06:43:39.619Z,52.29
2022-08-07T06:44:36.806Z,52.56
2022-08-07T06:45:27.534Z,52.56
2022-08-07T06:46:35.089Z,52.67
2022-08-07T06:47:38.674Z,52.26
2022-08-07T06:48:29.155Z,51.56
2022-08-07T06:49:27.362Z,51.05
2022-08-07T06:50:36.093Z,51.33
2022-08-07T06:51:33.398Z,51.13
2022-08-07T06:52:31.884Z,51.13
2022-08-07T06:55:27.172Z,50.93
2022-08-07T06:55:31.952Z,50.93
2022-08-07T06:55:53.583Z,50.52
2022-08-07T06:56:35.603Z,50.82
2022-08-07T06:57:43.446Z,50.52
2022-08-07T06:58:28.955Z,50.52
2022-08-07T07:00:12.602Z,50.02
2022-08-07T07:00:34.605Z,50.40
2022-08-07T07:01:33.150Z,50.10
2022-08-07T07:02:48.924Z,49.90
2022-08-07T07:03:48.942Z,49.59
2022-08-07T07:04:32.996Z,48.99
2022-08-07T07:06:03.376Z,49.09
2022-08-07T07:06:30.465Z,48.58
2022-08-07T07:07:59.670Z,48.99
2022-08-07T07:08:34.927Z,49.19
2022-08-07T07:09:30.934Z,49.29
2022-08-07T07:10:27.387Z,48.99
2022-08-07T07:12:10.059Z,48.99
2022-08-07T07:12:33.408Z,48.89
2022-08-07T07:13:56.396Z,49.07
2022-08-07T07:14:30.378Z,48.96
2022-08-07T07:15:32.528Z,47.96
2022-08-07T07:16:30.264Z,47.45
2022-08-07T07:17:28.863Z,47.45
2022-08-07T07:18:46.855Z,47.55
2022-08-07T07:19:56.893Z,47.96
2022-08-07T07:20:28.544Z,47.66
2022-08-07T07:21:40.398Z,47.66
2022-08-07T07:22:35.837Z,46.73
2022-08-07T07:24:08.734Z,46.73
2022-08-07T07:24:34.236Z,46.73
2022-08-07T07:26:33.964Z,46.33
2022-08-07T07:26:34.426Z,46.62
2022-08-07T07:27:35.792Z,46.42
2022-08-07T07:28:42.261Z,46.12
2022-08-07T07:29:56.636Z,46.30
2022-08-07T07:30:38.091Z,46.30
2022-08-07T07:31:30.467Z,46.20
2022-08-07T07:32:28.474Z,46.70
2022-08-07T07:33:26.820Z,46.70
2022-08-07T07:34:33.572Z,46.80
2022-08-07T07:35:27.859Z,46.40
2022-08-07T07:36:32.894Z,47.00
2022-08-07T07:37:47.140Z,46.60
2022-08-07T07:38:27.884Z,45.90
2022-08-07T07:39:35.857Z,46.40
2022-08-07T07:40:28.631Z,46.20
2022-08-07T07:41:50.463Z,45.78
2022-08-07T07:42:32.513Z,45.57
2022-08-07T07:43:48.162Z,45.87
2022-08-07T07:44:34.322Z,45.78
2022-08-07T07:46:39.754Z,45.27
2022-08-07T07:46:39.960Z,44.97
2022-08-07T07:47:28.727Z,45.37
2022-08-07T07:48:35.741Z,46.28
2022-08-07T07:50:35.770Z,45.47
2022-08-07T07:50:40.145Z,45.07
2022-08-07T07:51:27.119Z,45.47
2022-08-07T07:52:27.876Z,44.77
2022-08-07T07:53:27.945Z,44.47
2022-08-07T07:54:29.186Z,44.75
2022-08-07T07:55:27.736Z,44.55
2022-08-07T07:56:35.619Z,44.24
2022-08-07T07:57:52.191Z,44.65
2022-08-07T07:58:27.962Z,44.15
2022-08-07T07:59:51.628Z,43.95
2022-08-07T08:00:29.643Z,44.15
2022-08-07T08:02:03.270Z,43.44
2022-08-07T08:03:16.678Z,43.74
2022-08-07T08:04:12.529Z,43.74
2022-08-07T08:05:14.155Z,43.95
2022-08-07T08:06:13.131Z,44.24
2022-08-07T08:07:19.996Z,44.04
2022-08-07T08:08:32.311Z,43.22
2022-08-07T08:09:12.494Z,43.12
2022-08-07T08:10:14.935Z,43.72
2022-08-07T08:11:16.317Z,43.24
2022-08-07T08:12:12.786Z,43.24
2022-08-07T08:13:18.952Z,43.42
2022-08-07T08:14:12.457Z,43.34
2022-08-07T08:15:11.147Z,43.22
2022-08-07T08:16:12.683Z,42.82
2022-08-07T08:17:32.462Z,43.14
2022-08-07T08:18:55.859Z,43.14
2022-08-07T08:20:17.859Z,43.24
2022-08-07T08:20:58.005Z,43.34
2022-08-07T08:22:03.353Z,43.14
2022-08-07T08:22:57.363Z,43.04
2022-08-07T08:24:02.091Z,42.64
2022-08-07T08:25:04.480Z,42.92
2022-08-07T08:25:56.826Z,43.02
2022-08-07T08:26:56.127Z,42.32
2022-08-07T08:27:56.226Z,42.21
2022-08-07T08:28:55.834Z,42.11
2022-08-07T08:30:03.815Z,43.52
2022-08-07T08:30:56.141Z,42.72
2022-08-07T08:32:04.764Z,42.92
2022-08-07T08:32:56.741Z,42.92
2022-08-07T08:33:57.843Z,42.72
2022-08-07T08:34:55.913Z,42.32
2022-08-07T08:36:02.159Z,42.69
2022-08-07T08:36:57.591Z,42.90
2022-08-07T08:38:00.448Z,42.40
2022-08-07T08:38:57.398Z,42.40
2022-08-07T08:39:58.722Z,43.38
2022-08-07T08:40:55.608Z,42.78
2022-08-07T08:42:02.032Z,41.87
2022-08-07T08:42:55.772Z,42.38
2022-08-07T08:43:59.302Z,41.65
2022-08-07T08:44:55.902Z,41.05
2022-08-07T08:46:00.633Z,41.15
2022-08-07T08:47:02.793Z,41.35
2022-08-07T08:47:56.636Z,42.55
2022-08-07T08:48:56.495Z,41.25
2022-08-07T08:50:05.178Z,40.25
2022-08-07T08:50:58.000Z,40.57
2022-08-07T08:52:14.128Z,41.47
2022-08-07T08:52:57.012Z,41.65
2022-08-07T08:53:56.600Z,41.75
2022-08-07T08:54:55.471Z,41.75
2022-08-07T08:55:58.320Z,42.03
2022-08-07T08:56:55.399Z,41.74
2022-08-07T08:58:02.752Z,41.61
2022-08-07T08:58:56.725Z,41.82
2022-08-07T08:59:57.180Z,41.11
2022-08-07T09:00:56.449Z,40.41
2022-08-07T09:01:59.581Z,40.51
2022-08-07T09:02:57.956Z,41.01
2022-08-07T09:04:03.041Z,39.71
2022-08-07T09:04:55.779Z,39.31
2022-08-07T09:05:55.550Z,39.01
2022-08-07T09:06:55.548Z,40.81
2022-08-07T09:08:02.581Z,40.41
2022-08-07T09:09:02.195Z,41.61
2022-08-07T09:09:57.893Z,38.70
2022-08-07T09:10:56.406Z,39.40
2022-08-07T09:12:02.791Z,39.51
2022-08-07T09:12:56.403Z,39.18
2022-08-07T09:14:01.881Z,39.39
2022-08-07T09:14:58.808Z,39.09
2022-08-07T09:16:24.390Z,38.89
2022-08-07T09:16:57.184Z,38.68
2022-08-07T09:17:59.376Z,38.29
2022-08-07T09:19:03.578Z,38.99
2022-08-07T09:20:01.824Z,38.59
2022-08-07T09:20:58.404Z,39.18
2022-08-07T09:22:22.374Z,38.99
2022-08-07T09:24:30.451Z,40.19
2022-08-07T09:24:31.056Z,40.69
2022-08-07T09:24:59.688Z,39.07
2022-08-07T09:25:56.079Z,38.77
2022-08-07T09:27:04.576Z,39.97
2022-08-07T09:28:01.306Z,40.27
2022-08-07T09:30:01.293Z,40.05
2022-08-07T09:30:06.433Z,38.95
2022-08-07T09:30:57.616Z,37.95
2022-08-07T09:31:56.235Z,38.15
2022-08-07T09:32:55.090Z,37.35
2022-08-07T09:33:57.910Z,37.55
2022-08-07T09:35:04.821Z,37.75
2022-08-07T09:36:05.103Z,38.05
2022-08-07T09:36:57.765Z,38.77
2022-08-07T09:37:55.013Z,37.66
2022-08-07T09:38:56.794Z,37.85
2022-08-07T09:39:57.976Z,37.95
2022-08-07T09:41:01.489Z,38.05
2022-08-07T09:42:05.891Z,38.15
2022-08-07T09:42:56.936Z,38.05
2022-08-07T09:44:05.569Z,38.75
2022-08-07T09:47:24.544Z,37.65
2022-08-07T09:47:37.257Z,37.85
2022-08-07T09:47:50.935Z,37.65
2022-08-07T09:48:02.898Z,37.75
2022-08-07T09:50:00.887Z,38.05
2022-08-07T09:50:01.045Z,38.15
2022-08-07T09:51:03.842Z,37.25
2022-08-07T09:52:16.211Z,37.57
2022-08-07T09:52:56.645Z,37.77
2022-08-07T09:53:59.260Z,37.37
2022-08-07T09:55:02.593Z,37.87
2022-08-07T09:56:03.534Z,37.57
2022-08-07T09:57:04.235Z,37.37
2022-08-07T09:57:55.464Z,37.27
2022-08-07T09:58:55.911Z,37.37
2022-08-07T10:00:00.564Z,37.87
2022-08-07T10:00:57.495Z,37.95
2022-08-07T10:02:02.477Z,37.65
2022-08-07T10:02:56.340Z,37.65
2022-08-07T10:04:06.048Z,38.05
2022-08-07T10:04:57.287Z,38.55
2022-08-07T10:06:00.855Z,38.13
2022-08-07T10:06:57.160Z,37.73
2022-08-07T10:08:01.506Z,37.53
2022-08-07T10:08:55.225Z,37.92
2022-08-07T10:10:00.863Z,36.81
2022-08-07T10:11:59.527Z,36.31
2022-08-07T10:12:03.308Z,37.41
2022-08-07T10:13:04.257Z,37.11
2022-08-07T10:14:01.878Z,37.01
2022-08-07T10:14:56.934Z,36.61
2022-08-07T10:15:54.620Z,36.60
2022-08-07T10:16:55.314Z,36.49
2022-08-07T10:18:02.803Z,36.60
2022-08-07T10:18:54.419Z,36.99
2022-08-07T10:19:54.374Z,35.80
2022-08-07T10:20:55.542Z,36.60
2022-08-07T10:22:14.399Z,35.39
2022-08-07T10:23:02.031Z,35.49
2022-08-07T10:24:04.877Z,35.49
2022-08-07T10:24:57.322Z,35.10
2022-08-07T10:25:54.506Z,35.39
2022-08-07T10:26:54.468Z,35.39
2022-08-07T10:27:55.984Z,35.19
2022-08-07T10:29:01.551Z,36.01
2022-08-07T10:29:54.501Z,35.21
2022-08-07T10:30:54.244Z,35.51
2022-08-07T10:31:54.197Z,36.01
2022-08-07T10:32:54.510Z,36.13
2022-08-07T10:34:06.525Z,36.13
2022-08-07T10:34:55.970Z,35.83
2022-08-07T10:35:57.188Z,35.85
2022-08-07T10:36:55.944Z,36.05
2022-08-07T10:38:15.533Z,36.65
2022-08-07T10:39:02.504Z,37.25
2022-08-07T10:40:02.578Z,36.94
2022-08-07T10:40:56.514Z,36.63
2022-08-07T10:42:00.456Z,36.73
2022-08-07T10:42:56.742Z,35.75
2022-08-07T10:43:55.078Z,36.15
2022-08-07T10:45:02.101Z,35.73
2022-08-07T10:45:57.996Z,36.13
2022-08-07T10:46:54.993Z,36.33
2022-08-07T10:47:56.674Z,36.33
2022-08-07T10:48:56.477Z,36.03
2022-08-07T10:50:00.474Z,36.23
2022-08-07T10:50:55.203Z,35.63
2022-08-07T10:52:01.710Z,35.53
2022-08-07T10:52:57.856Z,35.91
2022-08-07T10:53:58.505Z,35.71
2022-08-07T10:55:07.905Z,36.01
2022-08-07T10:55:56.296Z,35.41
2022-08-07T10:56:56.308Z,35.31
2022-08-07T10:57:56.351Z,35.30
2022-08-07T10:58:59.530Z,34.89
2022-08-07T11:00:01.945Z,34.89
2022-08-07T11:00:56.363Z,34.80
2022-08-07T11:02:05.529Z,35.30
2022-08-07T11:02:55.374Z,35.60
2022-08-07T11:04:05.410Z,35.30
2022-08-07T11:05:07.317Z,35.30
2022-08-07T11:05:55.466Z,35.39
2022-08-07T11:06:54.743Z,35.38
2022-08-07T11:07:58.604Z,35.08
2022-08-07T11:08:55.540Z,34.78
2022-08-07T11:10:09.922Z,34.78
2022-08-07T11:10:59.845Z,34.76
2022-08-07T11:11:53.967Z,34.76
2022-08-07T11:13:02.332Z,34.16
2022-08-07T11:14:43.717Z,33.86
2022-08-07T11:14:57.420Z,34.75
2022-08-07T11:16:01.440Z,34.25
2022-08-07T11:16:59.383Z,34.43
2022-08-07T11:17:55.080Z,34.13
2022-08-07T11:19:00.031Z,33.23
2022-08-07T11:19:54.509Z,33.42
2022-08-07T11:20:59.899Z,33.01
2022-08-07T11:21:54.599Z,32.92
2022-08-07T11:22:54.525Z,32.40
2022-08-07T11:23:53.783Z,31.81
2022-08-07T11:24:54.304Z,32.62
2022-08-07T11:26:06.330Z,31.52
2022-08-07T11:26:55.923Z,31.52
2022-08-07T11:28:02.628Z,32.52
2022-08-07T11:28:56.017Z,32.62
2022-08-07T11:30:10.425Z,32.70
2022-08-07T11:30:55.925Z,31.90
2022-08-07T11:32:00.078Z,32.30
2022-08-07T11:32:54.592Z,32.09
2022-08-07T11:33:59.634Z,31.79
2022-08-07T11:34:54.945Z,31.09
2022-08-07T11:35:59.713Z,31.18
2022-08-07T11:36:56.441Z,31.07
2022-08-07T11:38:10.419Z,29.88
2022-08-07T11:38:54.795Z,30.29
2022-08-07T11:39:59.220Z,30.40
2022-08-07T11:40:55.254Z,30.91
2022-08-07T11:42:00.251Z,31.30
2022-08-07T11:42:55.027Z,32.20
2022-08-07T11:44:11.001Z,31.40
2022-08-07T11:44:57.842Z,31.69
2022-08-07T11:45:54.290Z,30.59
2022-08-07T11:46:53.664Z,31.79
2022-08-07T11:47:56.417Z,31.37
2022-08-07T11:49:50.855Z,30.77
2022-08-07T11:50:30.569Z,30.28
2022-08-07T11:50:57.617Z,30.48
2022-08-07T11:51:54.292Z,30.58
2022-08-07T11:52:53.607Z,31.37
2022-08-07T11:54:01.399Z,31.07
2022-08-07T11:54:55.615Z,31.26
2022-08-07T11:56:15.682Z,30.96
2022-08-07T11:56:56.242Z,30.55
2022-08-07T11:58:00.717Z,30.15
2022-08-07T11:58:55.941Z,30.13
2022-08-07T12:00:11.593Z,30.33
2022-08-07T12:01:05.043Z,29.84
2022-08-07T12:02:00.646Z,29.84
2022-08-07T12:02:55.981Z,29.54
2022-08-07T12:03:54.133Z,29.74
2022-08-07T12:04:54.026Z,29.64
2022-08-07T12:05:53.961Z,29.54
2022-08-07T12:07:07.938Z,29.54
2022-08-07T12:07:59.595Z,29.44
2022-08-07T12:08:55.450Z,29.54
2022-08-07T12:09:55.101Z,29.94
2022-08-07T12:11:08.040Z,29.74
2022-08-07T12:12:10.725Z,29.54
2022-08-07T12:12:55.788Z,29.55
2022-08-07T12:13:53.310Z,29.97
2022-08-07T12:14:56.398Z,30.46
2022-08-07T12:16:06.068Z,30.28
2022-08-07T12:17:24.699Z,30.38
2022-08-07T12:18:29.842Z,30.48
2022-08-07T12:19:25.731Z,30.58
2022-08-07T12:20:30.067Z,30.48
2022-08-07T12:21:55.484Z,30.88
2022-08-07T12:22:38.592Z,30.99
2022-08-07T12:24:06.176Z,31.59
2022-08-07T12:24:52.498Z,30.99
2022-08-07T12:26:03.250Z,31.29
2022-08-07T12:26:29.996Z,31.10
2022-08-07T12:27:28.174Z,31.81
2022-08-07T12:28:31.934Z,32.09
2022-08-07T12:29:37.729Z,30.89
2022-08-07T12:30:27.136Z,31.01
2022-08-07T12:31:24.947Z,31.01
2022-08-07T12:32:25.576Z,31.42
2022-08-07T12:33:30.720Z,31.52
2022-08-07T12:34:33.166Z,31.62
2022-08-07T12:35:25.856Z,31.52
2022-08-07T12:36:33.298Z,31.32
2022-08-07T12:37:27.813Z,31.22
2022-08-07T12:38:38.605Z,31.52
2022-08-07T12:39:42.969Z,31.72
2022-08-07T12:40:48.942Z,31.32
2022-08-07T12:41:42.652Z,31.42
2022-08-07T12:42:27.681Z,31.82
2022-08-07T12:44:03.151Z,32.00
2022-08-07T12:44:33.098Z,31.01
2022-08-07T12:45:30.947Z,31.10
2022-08-07T12:46:26.434Z,31.01
2022-08-07T12:47:26.936Z,31.51
2022-08-07T12:48:27.967Z,31.49
2022-08-07T12:49:44.709Z,31.51
2022-08-07T12:50:39.192Z,31.40
2022-08-07T12:51:51.428Z,31.30
2022-08-07T12:52:25.310Z,31.60
2022-08-07T12:53:25.107Z,31.30
2022-08-07T12:54:38.490Z,31.81